ベルリン/テーゲル の空港の天気 - METARとTAF

ベルリン・テーゲル国際空港 ( EDDT / TXL ) - ドイツ ベルリン
飛行場実況気象(Metar)
観測時間06/25 10:20 CEST (06/25 08:20 UTC)
風向・風速南西 8m/s
視程10km以上
天気現象
少しの雲 雲底高度 670m
全天の8割程度の雲 雲底高度 1070m
気温20℃
湿度73%
気圧1008hPa
METAREDDT 250820Z 23016KT 9999 FEW022 BKN035 20/15 Q1008 NOSIG
過去の天気等 Google飛行場航空写真 Wunderground天気予報

過去48時間のMETAR

飛行場予報(TAF)
発表時間: 6/25 07:00 CEST (6/25 05:00 UTC)
予報対象時間: 25日8時 CEST ~ 26日8時 CEST
風向・風速南西 4m/s
視程10km以上
全天の4割程度の雲 雲底高度 610m
全天の8割程度の雲 雲底高度 1,070m
25日8時 CEST ~ 25日10時 CEST に徐々に
風向・風速西南西 7m/s
25日11時 CEST ~ 25日17時 CEST に 確率 30% で一時的に
風向・風速西 8m/s 瞬間風速 13m/s
25日18時 CEST ~ 25日20時 CEST に徐々に
風向・風速西 4m/s
TAF EDDT 250500Z 2506/2606 22008KT 9999 SCT020 BKN035
BECMG 2506/2508 25013KT
PROB30 TEMPO 2509/2515 26015G25KT
BECMG 2516/2518 26007KT